createdAt,value
2023-01-31T00:00:38.709Z,6.50
2023-01-31T00:03:06.833Z,6.50
2023-01-31T00:05:37.204Z,6.50
2023-01-31T00:08:05.623Z,6.50
2023-01-31T00:10:34.258Z,6.40
2023-01-31T00:13:02.392Z,6.40
2023-01-31T00:15:31.089Z,6.40
2023-01-31T00:17:59.205Z,6.40
2023-01-31T00:20:27.779Z,6.40
2023-01-31T00:22:57.716Z,6.40
2023-01-31T00:25:26.311Z,6.40
2023-01-31T00:27:54.909Z,6.40
2023-01-31T00:30:23.022Z,6.40
2023-01-31T00:32:51.616Z,6.30
2023-01-31T00:35:20.021Z,6.30
2023-01-31T00:37:48.794Z,6.30
2023-01-31T00:40:19.211Z,6.30
2023-01-31T00:42:47.504Z,6.30
2023-01-31T00:45:16.803Z,6.30
2023-01-31T00:47:44.920Z,6.30
2023-01-31T00:50:16.543Z,6.30
2023-01-31T00:52:44.846Z,6.30
2023-01-31T00:55:13.433Z,6.30
2023-01-31T00:57:42.920Z,6.20
2023-01-31T01:00:12.697Z,6.20
2023-01-31T01:02:40.801Z,6.20
2023-01-31T01:05:10.093Z,6.20
2023-01-31T01:07:38.192Z,6.20
2023-01-31T01:10:08.060Z,6.20
2023-01-31T01:12:36.749Z,6.20
2023-01-31T01:15:07.397Z,6.20
2023-01-31T01:17:36.157Z,6.20
2023-01-31T01:20:04.991Z,6.20
2023-01-31T01:22:35.368Z,6.20
2023-01-31T01:25:03.939Z,6.10
2023-01-31T01:27:32.679Z,6.20
2023-01-31T01:30:02.086Z,6.10
2023-01-31T01:32:32.023Z,6.10
2023-01-31T01:35:00.647Z,6.10
2023-01-31T01:37:30.399Z,6.10
2023-01-31T01:39:59.021Z,6.10
2023-01-31T01:42:28.591Z,6.10
2023-01-31T01:44:59.656Z,6.10
2023-01-31T01:47:38.159Z,6.10
2023-01-31T01:50:12.750Z,6.10
2023-01-31T01:52:44.822Z,6.20
2023-01-31T01:55:19.779Z,6.10
2023-01-31T01:57:52.127Z,6.10
2023-01-31T02:00:23.285Z,6.10
2023-01-31T02:02:56.766Z,6.20
2023-01-31T02:05:30.678Z,6.10
2023-01-31T02:07:59.829Z,6.10
2023-01-31T02:10:34.148Z,6.20
2023-01-31T02:13:03.435Z,6.20
2023-01-31T02:15:32.985Z,6.20
2023-01-31T02:18:02.492Z,6.10
2023-01-31T02:21:05.241Z,6.20
2023-01-31T02:24:04.609Z,6.10
2023-01-31T02:27:10.512Z,6.20
2023-01-31T02:30:16.525Z,6.20
2023-01-31T02:33:01.481Z,6.20
2023-01-31T02:35:43.411Z,6.20
2023-01-31T02:38:23.373Z,6.20
2023-01-31T02:40:59.828Z,6.20
2023-01-31T02:43:58.801Z,6.20
2023-01-31T02:46:36.712Z,6.20
2023-01-31T02:49:16.511Z,6.10
2023-01-31T02:52:09.051Z,6.10
2023-01-31T02:54:52.588Z,6.10
2023-01-31T02:57:21.097Z,6.10
2023-01-31T02:59:49.759Z,6.10
2023-01-31T03:02:18.467Z,6.10
2023-01-31T03:04:49.163Z,6.00
2023-01-31T03:07:22.706Z,6.10
2023-01-31T03:10:03.609Z,6.10
2023-01-31T03:12:42.703Z,6.10
2023-01-31T03:15:52.896Z,6.10
2023-01-31T03:18:24.251Z,6.10
2023-01-31T03:21:00.347Z,6.10
2023-01-31T03:23:31.813Z,6.10
2023-01-31T03:26:02.412Z,6.10
2023-01-31T03:28:36.249Z,6.00
2023-01-31T03:31:10.491Z,6.10
2023-01-31T03:33:41.913Z,6.10
2023-01-31T03:36:22.773Z,6.00
2023-01-31T03:38:57.889Z,6.00
2023-01-31T03:41:32.587Z,6.10
2023-01-31T03:44:07.075Z,6.00
2023-01-31T03:46:41.456Z,6.00
2023-01-31T03:49:13.306Z,6.00
2023-01-31T03:51:47.954Z,6.00
2023-01-31T03:54:25.528Z,6.00
2023-01-31T03:56:58.402Z,6.00
2023-01-31T03:59:31.466Z,6.00
2023-01-31T04:02:02.210Z,6.00
2023-01-31T04:04:37.102Z,6.00
2023-01-31T04:07:07.488Z,6.00
2023-01-31T04:09:38.067Z,6.00
2023-01-31T04:12:06.953Z,6.00
2023-01-31T04:14:35.660Z,6.00
2023-01-31T04:17:04.205Z,6.00
2023-01-31T04:19:32.410Z,6.00
2023-01-31T04:22:00.513Z,6.00
2023-01-31T04:24:30.535Z,6.00
2023-01-31T04:26:58.579Z,6.10
2023-01-31T04:29:27.210Z,6.00
2023-01-31T04:31:55.366Z,6.10
2023-01-31T04:34:23.956Z,6.10
2023-01-31T04:36:52.455Z,6.00
2023-01-31T04:39:20.562Z,6.10
2023-01-31T04:41:50.513Z,6.10
2023-01-31T04:44:18.595Z,6.10
2023-01-31T04:46:47.684Z,6.10
2023-01-31T04:49:16.435Z,6.10
2023-01-31T04:51:44.558Z,6.10
2023-01-31T04:54:13.230Z,6.10
2023-01-31T04:56:41.322Z,6.10
2023-01-31T04:59:11.436Z,6.10
2023-01-31T05:01:39.536Z,6.00
2023-01-31T05:04:08.237Z,6.10
2023-01-31T05:06:36.852Z,6.10
2023-01-31T05:09:05.488Z,6.10
2023-01-31T05:11:34.051Z,6.00
2023-01-31T05:14:02.588Z,6.10
2023-01-31T05:16:32.569Z,6.10
2023-01-31T05:19:01.217Z,6.10
2023-01-31T05:21:29.403Z,6.10
2023-01-31T05:23:58.033Z,6.10
2023-01-31T05:26:26.591Z,6.10
2023-01-31T05:28:54.653Z,6.10
2023-01-31T05:31:23.509Z,6.10
2023-01-31T05:33:54.017Z,6.10
2023-01-31T05:36:22.097Z,6.20
2023-01-31T05:38:51.115Z,6.20
2023-01-31T05:41:19.166Z,6.20
2023-01-31T05:43:47.250Z,6.20
2023-01-31T05:46:15.503Z,6.20
2023-01-31T05:48:44.030Z,6.20
2023-01-31T05:51:13.930Z,6.20
2023-01-31T05:53:41.991Z,6.20
2023-01-31T05:56:10.548Z,6.20
2023-01-31T05:58:39.123Z,6.20
2023-01-31T06:01:07.238Z,6.20
2023-01-31T06:03:35.800Z,6.20
2023-01-31T06:06:05.686Z,6.20
2023-01-31T06:08:35.655Z,6.20
2023-01-31T06:11:04.860Z,6.20
2023-01-31T06:13:33.162Z,6.20
2023-01-31T06:16:03.051Z,6.20
2023-01-31T06:18:31.993Z,6.20
2023-01-31T06:21:00.567Z,6.20
2023-01-31T06:23:29.216Z,6.20
2023-01-31T06:25:59.532Z,6.20
2023-01-31T06:28:28.203Z,6.20
2023-01-31T06:30:56.926Z,6.20
2023-01-31T06:33:42.172Z,6.20
2023-01-31T06:36:13.636Z,6.20
2023-01-31T06:38:42.295Z,6.20
2023-01-31T06:41:12.949Z,6.20
2023-01-31T06:43:42.266Z,6.20
2023-01-31T06:46:10.430Z,6.20
2023-01-31T06:48:39.068Z,6.20
2023-01-31T06:51:07.432Z,6.20
2023-01-31T06:53:39.012Z,6.20
2023-01-31T06:56:08.364Z,6.20
2023-01-31T06:58:37.826Z,6.20
2023-01-31T07:01:06.808Z,6.20
2023-01-31T07:03:35.036Z,6.20
2023-01-31T07:06:03.270Z,6.20
2023-01-31T07:08:35.307Z,6.20
2023-01-31T07:11:04.957Z,6.20
2023-01-31T07:13:33.788Z,6.10
2023-01-31T07:16:03.274Z,6.10
2023-01-31T07:18:31.501Z,6.10
2023-01-31T07:20:59.570Z,6.10
2023-01-31T07:23:28.126Z,6.10
2023-01-31T07:25:56.238Z,6.00
2023-01-31T07:28:24.319Z,6.00
2023-01-31T07:30:52.459Z,6.00
2023-01-31T07:33:22.412Z,6.00
2023-01-31T07:35:51.263Z,5.90
2023-01-31T07:38:19.936Z,5.90
2023-01-31T07:40:47.991Z,5.90
2023-01-31T07:43:16.506Z,5.90
2023-01-31T07:45:45.069Z,5.90
2023-01-31T07:48:13.156Z,5.90
2023-01-31T07:50:43.083Z,5.90
2023-01-31T07:53:11.625Z,5.90
2023-01-31T07:55:40.214Z,5.90
2023-01-31T07:58:08.291Z,5.90
2023-01-31T08:00:54.347Z,5.90
2023-01-31T08:03:33.869Z,5.90
2023-01-31T08:06:08.185Z,5.90
2023-01-31T08:08:36.741Z,5.90
2023-01-31T08:11:06.160Z,5.90
2023-01-31T08:13:35.757Z,5.90
2023-01-31T08:16:04.614Z,5.90
2023-01-31T08:18:33.206Z,5.90
2023-01-31T08:21:01.656Z,6.00
2023-01-31T08:23:32.093Z,6.00
2023-01-31T08:26:04.831Z,6.00
2023-01-31T08:28:34.070Z,6.00
2023-01-31T08:31:08.979Z,6.00
2023-01-31T08:33:39.199Z,6.00
2023-01-31T08:36:12.207Z,6.00
2023-01-31T08:38:43.072Z,6.00
2023-01-31T08:41:11.279Z,6.00
2023-01-31T08:43:54.074Z,6.00
2023-01-31T08:46:23.887Z,6.00
2023-01-31T08:48:52.847Z,6.10
2023-01-31T08:51:21.701Z,6.10
2023-01-31T08:53:51.339Z,6.10
2023-01-31T08:56:21.762Z,6.20
2023-01-31T08:58:50.173Z,6.20
2023-01-31T09:01:20.921Z,6.20
2023-01-31T09:03:50.615Z,6.20
2023-01-31T09:06:22.839Z,6.20
2023-01-31T09:08:52.348Z,6.20
2023-01-31T09:11:22.577Z,6.30
2023-01-31T09:13:51.959Z,6.30
2023-01-31T09:16:21.537Z,6.30
2023-01-31T09:18:49.617Z,6.40
2023-01-31T09:21:19.963Z,6.40
2023-01-31T09:23:48.935Z,6.40
2023-01-31T09:26:18.957Z,6.40
2023-01-31T09:28:47.029Z,6.40
2023-01-31T09:31:18.247Z,6.40
2023-01-31T09:33:46.369Z,6.40
2023-01-31T09:36:16.800Z,6.50
2023-01-31T09:38:45.425Z,6.50
2023-01-31T09:41:21.580Z,6.50
2023-01-31T09:43:55.132Z,6.40
2023-01-31T09:46:28.481Z,6.50
2023-01-31T09:48:58.959Z,6.50
2023-01-31T09:51:28.498Z,6.60
2023-01-31T09:53:57.932Z,6.60
2023-01-31T09:56:35.870Z,6.60
2023-01-31T09:59:16.633Z,6.70
2023-01-31T10:01:53.685Z,6.70
2023-01-31T10:04:38.298Z,6.70
2023-01-31T10:07:13.694Z,6.80
2023-01-31T10:09:46.203Z,6.70
2023-01-31T10:12:20.504Z,6.80
2023-01-31T10:14:52.314Z,6.80
2023-01-31T10:17:25.595Z,6.80
2023-01-31T10:19:58.883Z,6.80
2023-01-31T10:22:33.356Z,6.80
2023-01-31T10:25:08.017Z,6.90
2023-01-31T10:27:46.697Z,6.90
2023-01-31T10:30:19.653Z,6.90
2023-01-31T10:32:52.877Z,6.90
2023-01-31T10:35:25.870Z,6.90
2023-01-31T10:37:59.379Z,7.00
2023-01-31T10:40:35.134Z,7.00
2023-01-31T10:43:15.744Z,7.10
2023-01-31T10:45:43.938Z,7.10
2023-01-31T10:48:17.907Z,7.10
2023-01-31T10:50:59.966Z,7.20
2023-01-31T10:53:48.856Z,7.20
2023-01-31T10:56:25.223Z,7.20
2023-01-31T10:58:55.002Z,7.20
2023-01-31T11:01:23.676Z,7.30
2023-01-31T11:03:54.563Z,7.30
2023-01-31T11:06:23.583Z,7.30
2023-01-31T11:08:55.886Z,7.30
2023-01-31T11:11:25.953Z,7.30
2023-01-31T11:14:01.131Z,7.30
2023-01-31T11:16:32.457Z,7.30
2023-01-31T11:19:03.261Z,7.30
2023-01-31T11:21:33.938Z,7.40
2023-01-31T11:24:06.332Z,7.40
2023-01-31T11:26:37.641Z,7.40
2023-01-31T11:29:19.774Z,7.40
2023-01-31T11:31:49.731Z,7.40
2023-01-31T11:34:24.006Z,7.50
2023-01-31T11:36:52.872Z,7.50
2023-01-31T11:39:32.072Z,7.50
2023-01-31T11:42:08.828Z,7.50
2023-01-31T11:44:38.756Z,7.50
2023-01-31T11:47:13.119Z,7.50
2023-01-31T11:49:44.114Z,7.50
2023-01-31T11:52:17.948Z,7.50
2023-01-31T11:54:50.935Z,7.50
2023-01-31T11:57:24.585Z,7.40
2023-01-31T11:59:58.675Z,7.40
2023-01-31T12:02:33.147Z,7.40
2023-01-31T12:05:02.850Z,7.30
2023-01-31T12:07:43.354Z,7.30
2023-01-31T12:10:28.900Z,7.30
2023-01-31T12:13:17.641Z,7.20
2023-01-31T12:15:55.960Z,7.30
2023-01-31T12:18:41.271Z,7.20
2023-01-31T12:21:16.254Z,7.20
2023-01-31T12:24:01.602Z,7.20
2023-01-31T12:26:39.712Z,7.20
2023-01-31T12:29:26.137Z,7.20
2023-01-31T12:32:22.356Z,7.20
2023-01-31T12:35:11.995Z,7.20
2023-01-31T12:37:52.696Z,7.20
2023-01-31T12:40:39.787Z,7.10
2023-01-31T12:43:21.152Z,7.10
2023-01-31T12:46:07.640Z,7.10
2023-01-31T12:48:47.953Z,7.10
2023-01-31T12:51:31.134Z,7.10
2023-01-31T12:54:13.907Z,7.10
2023-01-31T12:56:51.411Z,7.10
2023-01-31T12:59:34.529Z,7.10
2023-01-31T13:02:21.456Z,7.00
2023-01-31T13:04:57.607Z,7.00
2023-01-31T13:07:31.949Z,7.00
2023-01-31T13:10:03.953Z,7.00
2023-01-31T13:12:35.040Z,7.00
2023-01-31T13:15:08.062Z,7.00
2023-01-31T13:17:41.010Z,7.00
2023-01-31T13:20:24.055Z,7.00
2023-01-31T13:22:57.526Z,7.00
2023-01-31T13:25:36.684Z,6.90
2023-01-31T13:28:10.907Z,6.90
2023-01-31T13:30:43.286Z,6.90
2023-01-31T13:33:22.093Z,7.00
2023-01-31T13:36:03.389Z,6.90
2023-01-31T13:38:38.993Z,6.90
2023-01-31T13:41:09.477Z,6.90
2023-01-31T13:43:37.528Z,6.90
2023-01-31T13:46:10.029Z,6.90
2023-01-31T13:48:42.119Z,6.90
2023-01-31T13:51:19.593Z,6.90
2023-01-31T13:53:52.560Z,7.00
2023-01-31T13:56:25.999Z,7.00
2023-01-31T13:58:56.554Z,7.00
2023-01-31T14:01:26.261Z,7.00
2023-01-31T14:04:29.685Z,7.00
2023-01-31T14:07:21.042Z,7.10
2023-01-31T14:10:22.814Z,7.10
2023-01-31T14:13:39.403Z,7.10
2023-01-31T14:16:39.776Z,7.10
2023-01-31T14:19:53.157Z,7.10
2023-01-31T14:22:23.967Z,7.10
2023-01-31T14:25:02.008Z,7.10
2023-01-31T14:28:03.920Z,7.10
2023-01-31T14:30:37.549Z,7.10
2023-01-31T14:33:32.208Z,7.10
2023-01-31T14:36:44.755Z,7.10
2023-01-31T14:39:42.575Z,7.10
2023-01-31T14:42:28.718Z,7.10
2023-01-31T14:45:25.363Z,7.10
2023-01-31T14:48:12.383Z,7.10
2023-01-31T14:50:56.086Z,7.10
2023-01-31T14:53:44.252Z,7.10
2023-01-31T14:56:27.365Z,7.10
2023-01-31T14:58:55.811Z,7.10
2023-01-31T15:01:35.196Z,7.10
2023-01-31T15:04:04.915Z,7.10
2023-01-31T15:06:41.031Z,7.10
2023-01-31T15:09:34.984Z,7.10
2023-01-31T15:12:03.084Z,7.10
2023-01-31T15:14:38.092Z,7.10
2023-01-31T15:17:33.258Z,7.10
2023-01-31T15:20:15.547Z,7.10
2023-01-31T15:22:45.323Z,7.10
2023-01-31T15:25:24.789Z,7.10
2023-01-31T15:27:54.582Z,7.10
2023-01-31T15:30:24.523Z,7.10
2023-01-31T15:33:00.356Z,7.10
2023-01-31T15:35:32.162Z,7.10
2023-01-31T15:38:05.168Z,7.20
2023-01-31T15:40:33.565Z,7.10
2023-01-31T15:43:26.467Z,7.10
2023-01-31T15:45:55.106Z,7.10
2023-01-31T15:48:24.617Z,7.20
2023-01-31T15:50:55.408Z,7.20
2023-01-31T15:53:25.148Z,7.20
2023-01-31T15:55:56.948Z,7.20
2023-01-31T15:58:27.197Z,7.20
2023-01-31T16:00:57.804Z,7.20
2023-01-31T16:03:30.260Z,7.20
2023-01-31T16:06:00.408Z,7.20
2023-01-31T16:08:31.307Z,7.20
2023-01-31T16:11:00.635Z,7.20
2023-01-31T16:13:30.095Z,7.20
2023-01-31T16:15:59.421Z,7.10
2023-01-31T16:18:29.651Z,7.10
2023-01-31T16:20:58.849Z,7.10
2023-01-31T16:23:30.726Z,7.20
2023-01-31T16:26:08.503Z,7.10
2023-01-31T16:28:43.056Z,7.10
2023-01-31T16:31:14.863Z,7.20
2023-01-31T16:33:50.344Z,7.20
2023-01-31T16:36:22.906Z,7.20
2023-01-31T16:38:59.814Z,7.20
2023-01-31T16:41:47.177Z,7.20
2023-01-31T16:44:19.444Z,7.20
2023-01-31T16:46:49.763Z,7.20
2023-01-31T16:49:27.515Z,7.20
2023-01-31T16:51:58.331Z,7.20
2023-01-31T16:54:31.187Z,7.20
2023-01-31T16:57:22.844Z,7.20
2023-01-31T16:59:52.887Z,7.20
2023-01-31T17:02:26.215Z,7.20
2023-01-31T17:04:58.901Z,7.90
2023-01-31T17:07:30.603Z,7.20
2023-01-31T17:10:00.851Z,7.20
2023-01-31T17:12:31.349Z,7.20
2023-01-31T17:15:03.100Z,7.20
2023-01-31T17:17:34.621Z,7.20
2023-01-31T17:20:04.762Z,7.20
2023-01-31T17:22:33.403Z,7.20
2023-01-31T17:25:01.479Z,7.20
2023-01-31T17:27:29.551Z,7.20
2023-01-31T17:29:58.178Z,7.20
2023-01-31T17:32:26.282Z,7.20
2023-01-31T17:34:54.917Z,7.20
2023-01-31T17:37:31.650Z,7.30
2023-01-31T17:40:01.420Z,7.30
2023-01-31T17:42:29.991Z,7.30
2023-01-31T17:44:58.109Z,7.30
2023-01-31T17:47:27.142Z,7.30
2023-01-31T17:49:56.166Z,7.30
2023-01-31T17:52:26.247Z,7.30
2023-01-31T17:54:55.825Z,7.30
2023-01-31T17:57:23.948Z,7.30
2023-01-31T17:59:52.325Z,7.30
2023-01-31T18:02:20.567Z,7.30
2023-01-31T18:04:48.690Z,7.30
2023-01-31T18:07:17.298Z,7.30
2023-01-31T18:09:46.756Z,7.30
2023-01-31T18:12:14.955Z,7.30
2023-01-31T18:14:43.134Z,7.30
2023-01-31T18:17:11.312Z,7.30
2023-01-31T18:19:40.055Z,7.30
2023-01-31T18:22:08.636Z,7.30
2023-01-31T18:24:37.266Z,7.30
2023-01-31T18:27:06.729Z,7.30
2023-01-31T18:29:34.815Z,7.30
2023-01-31T18:32:06.260Z,7.30
2023-01-31T18:34:34.863Z,7.30
2023-01-31T18:37:05.586Z,7.30
2023-01-31T18:39:34.429Z,7.30
2023-01-31T18:42:03.791Z,7.30
2023-01-31T18:44:33.206Z,7.40
2023-01-31T18:47:01.846Z,7.40
2023-01-31T18:49:30.723Z,7.40
2023-01-31T18:51:59.313Z,7.40
2023-01-31T18:54:27.964Z,7.40
2023-01-31T18:56:56.016Z,7.40
2023-01-31T18:59:24.604Z,7.40
2023-01-31T19:01:54.617Z,7.40
2023-01-31T19:04:23.385Z,7.40
2023-01-31T19:06:51.566Z,7.40
2023-01-31T19:09:20.320Z,7.40
2023-01-31T19:11:48.341Z,7.40
2023-01-31T19:14:17.066Z,7.40
2023-01-31T19:16:45.447Z,7.40
2023-01-31T19:19:14.878Z,7.40
2023-01-31T19:21:43.274Z,7.40
2023-01-31T19:24:14.597Z,7.40
2023-01-31T19:26:43.859Z,7.40
2023-01-31T19:29:16.099Z,7.40
2023-01-31T19:31:46.303Z,7.40
2023-01-31T19:34:15.814Z,7.40
2023-01-31T19:36:46.524Z,7.40
2023-01-31T19:39:15.212Z,7.40
2023-01-31T19:41:43.390Z,7.40
2023-01-31T19:44:11.628Z,7.40
2023-01-31T19:46:40.250Z,7.40
2023-01-31T19:49:08.349Z,7.40
2023-01-31T19:51:38.094Z,7.40
2023-01-31T19:54:06.792Z,7.40
2023-01-31T19:56:35.468Z,7.40
2023-01-31T19:59:03.745Z,7.40
2023-01-31T20:01:32.358Z,7.40
2023-01-31T20:04:00.613Z,7.40
2023-01-31T20:06:31.300Z,7.40
2023-01-31T20:09:04.279Z,7.40
2023-01-31T20:11:34.075Z,7.40
2023-01-31T20:14:02.169Z,7.40
2023-01-31T20:16:31.037Z,7.40
2023-01-31T20:19:01.981Z,7.40
2023-01-31T20:21:30.027Z,7.40
2023-01-31T20:23:58.126Z,7.40
2023-01-31T20:26:29.466Z,7.40
2023-01-31T20:28:57.648Z,7.40
2023-01-31T20:31:26.029Z,7.40
2023-01-31T20:33:55.624Z,7.40
2023-01-31T20:36:24.602Z,7.40
2023-01-31T20:38:53.359Z,7.50
2023-01-31T20:41:22.441Z,7.50
2023-01-31T20:43:51.847Z,7.50
2023-01-31T20:46:20.786Z,7.50
2023-01-31T20:48:48.940Z,7.50
2023-01-31T20:51:17.552Z,7.50
2023-01-31T20:53:45.714Z,7.50
2023-01-31T20:56:14.404Z,7.50
2023-01-31T20:58:44.925Z,7.50
2023-01-31T21:01:14.490Z,7.50
2023-01-31T21:03:43.240Z,7.50
2023-01-31T21:06:11.956Z,7.50
2023-01-31T21:08:41.307Z,7.50
2023-01-31T21:11:15.520Z,7.50
2023-01-31T21:13:44.486Z,7.50
2023-01-31T21:16:15.679Z,7.50
2023-01-31T21:18:44.902Z,7.50
2023-01-31T21:21:15.466Z,7.50
2023-01-31T21:23:44.055Z,7.50
2023-01-31T21:26:13.055Z,7.50
2023-01-31T21:28:41.770Z,7.50
2023-01-31T21:31:12.747Z,7.60
2023-01-31T21:33:42.830Z,7.60
2023-01-31T21:36:12.972Z,7.50
2023-01-31T21:38:42.431Z,7.50
2023-01-31T21:41:29.408Z,7.50
2023-01-31T21:43:58.509Z,7.50
2023-01-31T21:46:28.119Z,7.50
2023-01-31T21:48:57.643Z,7.60
2023-01-31T21:51:26.323Z,7.60
2023-01-31T21:53:55.153Z,7.50
2023-01-31T21:56:26.273Z,7.50
2023-01-31T21:58:55.372Z,7.50
2023-01-31T22:01:26.627Z,7.60
2023-01-31T22:03:55.629Z,7.60
2023-01-31T22:06:29.000Z,7.60
2023-01-31T22:09:00.657Z,7.60
2023-01-31T22:11:33.445Z,7.50
2023-01-31T22:14:03.586Z,7.50
2023-01-31T22:16:31.945Z,7.60
2023-01-31T22:19:01.275Z,7.60
2023-01-31T22:21:32.428Z,7.60
2023-01-31T22:24:02.460Z,7.60
2023-01-31T22:26:32.571Z,7.60
2023-01-31T22:29:02.782Z,7.60
2023-01-31T22:31:32.021Z,7.60
2023-01-31T22:34:01.599Z,7.60
2023-01-31T22:36:31.149Z,7.60
2023-01-31T22:38:59.326Z,7.60
2023-01-31T22:41:27.950Z,7.60
2023-01-31T22:43:56.448Z,6.00
2023-01-31T22:46:26.787Z,7.70
2023-01-31T22:48:55.740Z,7.70
2023-01-31T22:51:25.776Z,7.70
2023-01-31T22:53:55.697Z,7.70
2023-01-31T22:56:25.478Z,7.70
2023-01-31T22:58:57.050Z,7.60
2023-01-31T23:01:27.803Z,7.70
2023-01-31T23:03:59.249Z,7.60
2023-01-31T23:06:28.301Z,7.70
2023-01-31T23:08:58.584Z,7.60
2023-01-31T23:11:27.852Z,7.70
2023-01-31T23:13:57.455Z,7.60
2023-01-31T23:16:47.033Z,7.60
2023-01-31T23:19:15.488Z,7.60
2023-01-31T23:21:44.454Z,7.60
2023-01-31T23:24:15.067Z,7.60
2023-01-31T23:26:43.551Z,7.60
2023-01-31T23:29:12.045Z,7.60
2023-01-31T23:31:40.305Z,7.60
2023-01-31T23:34:08.496Z,7.60
2023-01-31T23:36:37.181Z,7.60
2023-01-31T23:39:05.905Z,7.50
2023-01-31T23:41:35.825Z,7.60
2023-01-31T23:44:03.944Z,7.60
2023-01-31T23:46:32.337Z,7.60
2023-01-31T23:49:00.521Z,7.60
2023-01-31T23:51:31.142Z,7.60
2023-01-31T23:53:59.206Z,7.60
2023-01-31T23:56:28.037Z,7.60
2023-01-31T23:58:57.534Z,7.60
